createdAt,value
2022-11-17T00:01:19.828Z,8.89
2022-11-17T00:04:04.709Z,8.94
2022-11-17T00:06:49.604Z,8.92
2022-11-17T00:09:34.762Z,8.90
2022-11-17T00:12:22.752Z,8.92
2022-11-17T00:15:08.657Z,8.92
2022-11-17T00:17:53.848Z,8.86
2022-11-17T00:20:39.802Z,8.84
2022-11-17T00:23:24.618Z,8.74
2022-11-17T00:26:09.623Z,8.69
2022-11-17T00:29:00.597Z,8.76
2022-11-17T00:31:45.456Z,8.74
2022-11-17T00:34:30.400Z,8.69
2022-11-17T00:37:16.275Z,8.65
2022-11-17T00:40:01.588Z,8.61
2022-11-17T00:42:46.910Z,8.66
2022-11-17T00:45:32.296Z,8.59
2022-11-17T00:48:17.379Z,8.53
2022-11-17T00:51:04.276Z,8.53
2022-11-17T00:53:49.280Z,8.53
2022-11-17T00:56:34.366Z,8.46
2022-11-17T00:59:19.809Z,8.43
2022-11-17T01:02:05.010Z,8.43
2022-11-17T01:04:49.905Z,8.39
2022-11-17T01:07:34.876Z,8.36
2022-11-17T01:10:20.371Z,8.28
2022-11-17T01:13:05.245Z,8.32
2022-11-17T01:15:50.320Z,8.29
2022-11-17T01:18:36.594Z,8.29
2022-11-17T01:21:24.244Z,8.26
2022-11-17T01:24:11.186Z,8.23
2022-11-17T01:26:56.127Z,8.28
2022-11-17T01:29:40.994Z,8.25
2022-11-17T01:32:25.822Z,8.28
2022-11-17T01:35:10.676Z,8.31
2022-11-17T01:37:55.623Z,8.35
2022-11-17T01:40:40.551Z,8.30
2022-11-17T01:43:48.565Z,8.39
2022-11-17T01:46:39.360Z,8.35
2022-11-17T01:49:28.440Z,8.31
2022-11-17T01:52:14.485Z,8.27
2022-11-17T01:55:00.449Z,8.29
2022-11-17T01:57:54.107Z,8.25
2022-11-17T02:00:40.672Z,8.19
2022-11-17T02:03:27.109Z,8.19
2022-11-17T02:06:16.950Z,8.18
2022-11-17T02:09:03.757Z,8.15
2022-11-17T02:11:49.160Z,8.16
2022-11-17T02:14:35.228Z,8.10
2022-11-17T02:17:22.239Z,8.10
2022-11-17T02:20:19.602Z,8.05
2022-11-17T02:23:23.385Z,8.05
2022-11-17T02:26:34.356Z,8.03
2022-11-17T02:29:29.657Z,8.06
2022-11-17T02:32:21.655Z,8.03
2022-11-17T02:35:15.025Z,8.02
2022-11-17T02:38:32.361Z,8.04
2022-11-17T02:41:21.539Z,8.05
2022-11-17T02:44:10.516Z,8.03
2022-11-17T02:47:04.865Z,8.09
2022-11-17T02:50:00.838Z,8.07
2022-11-17T02:52:45.834Z,8.09
2022-11-17T02:55:35.043Z,8.08
2022-11-17T02:58:21.292Z,8.05
2022-11-17T03:01:28.229Z,8.03
2022-11-17T03:04:37.823Z,8.05
2022-11-17T03:07:39.858Z,8.04
2022-11-17T03:10:35.336Z,8.05
2022-11-17T03:13:55.430Z,8.01
2022-11-17T03:17:10.231Z,8.04
2022-11-17T03:20:08.222Z,8.01
2022-11-17T03:22:58.692Z,8.01
2022-11-17T03:25:49.260Z,8.02
2022-11-17T03:28:34.970Z,8.01
2022-11-17T03:31:24.232Z,8.03
2022-11-17T03:34:15.263Z,7.95
2022-11-17T03:37:03.437Z,8.01
2022-11-17T03:39:55.153Z,8.02
2022-11-17T03:42:47.416Z,8.00
2022-11-17T03:45:35.673Z,8.03
2022-11-17T03:48:27.304Z,7.98
2022-11-17T03:51:19.194Z,7.92
2022-11-17T03:54:05.241Z,8.00
2022-11-17T03:57:12.063Z,8.06
2022-11-17T04:00:04.815Z,7.92
2022-11-17T04:02:55.709Z,7.99
2022-11-17T04:05:40.798Z,7.96
2022-11-17T04:08:26.625Z,7.92
2022-11-17T04:11:11.402Z,7.97
2022-11-17T04:13:56.475Z,7.97
2022-11-17T04:16:42.144Z,7.92
2022-11-17T04:19:28.098Z,7.94
2022-11-17T04:22:13.615Z,7.95
2022-11-17T04:24:58.557Z,7.89
2022-11-17T04:27:43.430Z,7.95
2022-11-17T04:30:28.468Z,7.99
2022-11-17T04:33:13.515Z,7.91
2022-11-17T04:35:58.758Z,7.91
2022-11-17T04:38:46.114Z,7.89
2022-11-17T04:41:31.299Z,7.86
2022-11-17T04:44:17.593Z,7.86
2022-11-17T04:47:02.489Z,7.82
2022-11-17T04:49:47.434Z,7.85
2022-11-17T04:52:32.344Z,7.84
2022-11-17T04:55:17.200Z,7.80
2022-11-17T04:58:02.468Z,7.80
2022-11-17T05:00:47.304Z,7.85
2022-11-17T05:03:34.207Z,7.82
2022-11-17T05:06:25.491Z,7.75
2022-11-17T05:09:12.643Z,7.75
2022-11-17T05:11:57.969Z,7.71
2022-11-17T05:14:43.142Z,7.73
2022-11-17T05:17:28.061Z,7.72
2022-11-17T05:20:12.840Z,7.71
2022-11-17T05:23:02.497Z,7.68
2022-11-17T05:25:53.461Z,7.68
2022-11-17T05:28:38.603Z,7.64
2022-11-17T05:31:25.209Z,7.59
2022-11-17T05:34:12.681Z,7.59
2022-11-17T05:36:57.746Z,7.58
2022-11-17T05:39:43.095Z,7.56
2022-11-17T05:42:27.905Z,7.55
2022-11-17T05:45:12.651Z,7.55
2022-11-17T05:47:57.493Z,7.54
2022-11-17T05:50:42.261Z,7.56
2022-11-17T05:53:29.475Z,7.57
2022-11-17T05:56:27.883Z,7.53
2022-11-17T05:59:27.705Z,7.51
2022-11-17T06:02:22.642Z,7.56
2022-11-17T06:05:09.427Z,7.54
2022-11-17T06:07:55.282Z,7.54
2022-11-17T06:10:40.304Z,7.57
2022-11-17T06:13:25.970Z,7.55
2022-11-17T06:16:16.746Z,7.58
2022-11-17T06:19:18.649Z,7.60
2022-11-17T06:22:12.089Z,7.60
2022-11-17T06:24:59.180Z,7.50
2022-11-17T06:27:46.120Z,7.58
2022-11-17T06:30:32.293Z,7.59
2022-11-17T06:33:18.496Z,7.60
2022-11-17T06:36:07.012Z,7.61
2022-11-17T06:38:51.954Z,7.58
2022-11-17T06:41:37.147Z,7.59
2022-11-17T06:44:22.374Z,7.63
2022-11-17T06:47:07.802Z,7.61
2022-11-17T06:49:52.799Z,7.63
2022-11-17T06:52:38.202Z,7.68
2022-11-17T06:55:23.600Z,7.70
2022-11-17T06:58:09.660Z,7.71
2022-11-17T07:01:00.591Z,7.78
2022-11-17T07:03:46.111Z,7.75
2022-11-17T07:06:31.175Z,7.82
2022-11-17T07:09:16.129Z,7.79
2022-11-17T07:12:01.560Z,7.83
2022-11-17T07:14:46.455Z,7.85
2022-11-17T07:17:31.926Z,7.82
2022-11-17T07:20:17.750Z,7.88
2022-11-17T07:23:02.816Z,7.80
2022-11-17T07:25:48.093Z,7.85
2022-11-17T07:28:35.016Z,7.86
2022-11-17T07:31:20.751Z,7.87
2022-11-17T07:34:06.354Z,7.86
2022-11-17T07:36:51.329Z,7.91
2022-11-17T07:39:37.067Z,7.87
2022-11-17T07:42:22.207Z,7.93
2022-11-17T07:45:08.305Z,7.88
2022-11-17T07:47:58.716Z,7.93
2022-11-17T07:50:43.974Z,7.93
2022-11-17T07:53:29.652Z,7.99
2022-11-17T07:56:14.879Z,8.03
2022-11-17T07:58:59.816Z,8.05
2022-11-17T08:01:45.133Z,8.11
2022-11-17T08:04:30.531Z,8.14
2022-11-17T08:07:15.505Z,8.16
2022-11-17T08:10:00.771Z,8.17
2022-11-17T08:12:46.397Z,8.14
2022-11-17T08:15:31.825Z,8.13
2022-11-17T08:18:17.225Z,8.14
2022-11-17T08:21:04.515Z,8.13
2022-11-17T08:23:50.882Z,8.04
2022-11-17T08:26:36.358Z,7.98
2022-11-17T08:29:21.308Z,7.94
2022-11-17T08:32:06.244Z,7.89
2022-11-17T08:34:51.256Z,7.85
2022-11-17T08:37:40.559Z,7.87
2022-11-17T08:40:25.690Z,7.86
2022-11-17T08:43:10.944Z,7.81
2022-11-17T08:45:55.921Z,7.86
2022-11-17T08:48:41.092Z,7.87
2022-11-17T08:51:26.651Z,7.86
2022-11-17T08:54:12.180Z,7.83
2022-11-17T08:56:58.422Z,7.88
2022-11-17T08:59:43.473Z,7.88
2022-11-17T09:02:28.915Z,7.88
2022-11-17T09:05:14.091Z,7.90
2022-11-17T09:08:10.671Z,7.92
2022-11-17T09:11:10.842Z,7.90
2022-11-17T09:13:56.355Z,7.94
2022-11-17T09:16:41.376Z,7.96
2022-11-17T09:19:26.782Z,8.09
2022-11-17T09:22:12.129Z,8.09
2022-11-17T09:24:57.365Z,8.13
2022-11-17T09:27:42.460Z,8.15
2022-11-17T09:30:27.319Z,8.16
2022-11-17T09:33:12.191Z,8.26
2022-11-17T09:35:57.382Z,8.15
2022-11-17T09:38:43.377Z,8.19
2022-11-17T09:41:34.289Z,8.20
2022-11-17T09:44:44.170Z,8.17
2022-11-17T09:47:29.458Z,8.22
2022-11-17T09:50:27.952Z,8.24
2022-11-17T09:53:39.798Z,8.22
2022-11-17T09:56:27.162Z,8.24
2022-11-17T09:59:15.428Z,8.30
2022-11-17T10:02:00.418Z,8.30
2022-11-17T10:04:46.067Z,8.39
2022-11-17T10:07:33.003Z,8.29
2022-11-17T10:10:45.173Z,8.35
2022-11-17T10:13:33.646Z,8.31
2022-11-17T10:16:19.130Z,8.34
2022-11-17T10:19:24.102Z,8.27
2022-11-17T10:22:20.991Z,8.30
2022-11-17T10:25:21.742Z,8.38
2022-11-17T10:28:09.283Z,8.45
2022-11-17T10:30:57.105Z,8.57
2022-11-17T10:33:47.008Z,8.56
2022-11-17T10:36:33.209Z,8.53
2022-11-17T10:39:50.432Z,8.57
2022-11-17T10:42:36.650Z,8.59
2022-11-17T10:45:22.670Z,8.63
2022-11-17T10:48:29.226Z,8.62
2022-11-17T10:51:17.735Z,8.63
2022-11-17T10:54:20.985Z,8.69
2022-11-17T10:57:25.282Z,8.79
2022-11-17T11:00:23.663Z,8.74
2022-11-17T11:03:18.343Z,8.75
2022-11-17T11:06:07.468Z,8.74
2022-11-17T11:09:00.908Z,8.78
2022-11-17T11:11:53.034Z,8.89
2022-11-17T11:14:48.293Z,8.86
2022-11-17T11:17:33.260Z,8.94
2022-11-17T11:20:30.167Z,8.97
2022-11-17T11:23:27.512Z,9.05
2022-11-17T11:26:26.487Z,9.08
2022-11-17T11:29:19.959Z,9.11
2022-11-17T11:32:23.282Z,9.23
2022-11-17T11:35:26.557Z,9.22
2022-11-17T11:38:37.831Z,9.20
2022-11-17T11:41:41.481Z,9.33
2022-11-17T11:44:51.544Z,9.31
2022-11-17T11:47:55.350Z,9.41
2022-11-17T11:51:03.358Z,9.36
2022-11-17T11:53:55.724Z,9.45
2022-11-17T11:56:43.381Z,9.51
2022-11-17T11:59:40.668Z,9.52
2022-11-17T12:02:56.025Z,9.72
2022-11-17T12:06:00.595Z,9.77
2022-11-17T12:08:55.035Z,9.80
2022-11-17T12:11:41.407Z,9.85
2022-11-17T12:14:29.536Z,9.98
2022-11-17T12:17:14.548Z,10.08
2022-11-17T12:20:04.596Z,10.09
2022-11-17T12:23:18.920Z,10.05
2022-11-17T12:26:04.460Z,10.04
2022-11-17T12:28:49.475Z,10.07
2022-11-17T12:31:45.306Z,10.01
2022-11-17T12:34:35.406Z,10.03
2022-11-17T12:37:22.298Z,9.92
2022-11-17T12:40:08.716Z,10.01
2022-11-17T12:43:16.254Z,10.01
2022-11-17T12:46:05.190Z,10.07
2022-11-17T12:49:20.200Z,10.10
2022-11-17T12:52:15.372Z,10.22
2022-11-17T12:55:08.730Z,10.21
2022-11-17T12:58:09.186Z,10.26
2022-11-17T13:01:15.894Z,10.20
2022-11-17T13:04:13.526Z,10.21
2022-11-17T13:07:03.356Z,10.26
2022-11-17T13:09:59.260Z,10.20
2022-11-17T13:12:44.492Z,10.27
2022-11-17T13:15:29.480Z,10.27
2022-11-17T13:18:23.252Z,10.27
2022-11-17T13:21:26.759Z,10.34
2022-11-17T13:24:12.017Z,10.29
2022-11-17T13:27:03.479Z,10.26
2022-11-17T13:29:49.228Z,10.45
2022-11-17T13:32:34.381Z,10.47
2022-11-17T13:35:28.423Z,10.56
2022-11-17T13:38:22.154Z,10.55
2022-11-17T13:41:07.459Z,10.66
2022-11-17T13:43:53.864Z,10.58
2022-11-17T13:46:38.944Z,10.69
2022-11-17T13:49:39.370Z,10.59
2022-11-17T13:52:39.172Z,10.72
2022-11-17T13:55:28.191Z,10.70
2022-11-17T13:58:42.709Z,10.87
2022-11-17T14:01:29.135Z,10.68
2022-11-17T14:04:23.087Z,10.63
2022-11-17T14:07:10.870Z,10.68
2022-11-17T14:10:12.616Z,10.84
2022-11-17T14:13:00.847Z,10.85
2022-11-17T14:15:53.783Z,10.84
2022-11-17T14:18:39.060Z,10.80
2022-11-17T14:21:24.354Z,10.74
2022-11-17T14:24:13.255Z,10.79
2022-11-17T14:26:59.078Z,10.75
2022-11-17T14:29:45.943Z,10.71
2022-11-17T14:32:30.822Z,10.70
2022-11-17T14:38:01.684Z,10.65
2022-11-17T14:40:49.593Z,10.68
2022-11-17T14:43:34.985Z,10.66
2022-11-17T14:46:25.828Z,10.53
2022-11-17T14:49:11.042Z,10.55
2022-11-17T14:51:55.979Z,10.50
2022-11-17T14:54:40.988Z,10.58
2022-11-17T14:57:26.319Z,10.58
2022-11-17T15:00:15.835Z,10.65
2022-11-17T15:03:04.636Z,10.57
2022-11-17T15:05:49.558Z,10.49
2022-11-17T15:08:35.754Z,10.59
2022-11-17T15:11:20.893Z,10.51
2022-11-17T15:14:05.840Z,10.43
2022-11-17T15:16:50.746Z,10.37
2022-11-17T15:19:36.245Z,10.40
2022-11-17T15:22:21.760Z,10.18
2022-11-17T15:25:07.936Z,10.27
2022-11-17T15:27:53.106Z,10.28
2022-11-17T15:30:38.534Z,10.14
2022-11-17T15:33:24.614Z,10.12
2022-11-17T15:36:12.274Z,10.01
2022-11-17T15:38:57.670Z,9.97
2022-11-17T15:41:42.918Z,9.84
2022-11-17T15:44:28.898Z,9.81
2022-11-17T15:47:14.110Z,9.72
2022-11-17T15:49:59.495Z,9.90
2022-11-17T15:55:50.986Z,9.71
2022-11-17T15:58:36.387Z,9.77
2022-11-17T16:01:24.407Z,9.60
2022-11-17T16:04:11.798Z,9.58
2022-11-17T16:06:57.355Z,9.64
2022-11-17T16:09:44.949Z,9.62
2022-11-17T16:12:33.987Z,9.65
2022-11-17T16:15:18.877Z,9.68
2022-11-17T16:18:04.444Z,9.63
2022-11-17T16:20:50.269Z,9.61
2022-11-17T16:23:49.069Z,9.61
2022-11-17T16:26:34.267Z,9.54
2022-11-17T16:29:19.713Z,9.52
2022-11-17T16:32:05.457Z,9.53
2022-11-17T16:34:50.849Z,9.52
2022-11-17T16:37:36.484Z,9.56
2022-11-17T16:40:22.761Z,9.55
2022-11-17T16:43:11.228Z,9.44
2022-11-17T16:45:58.826Z,9.48
2022-11-17T16:48:49.154Z,9.39
2022-11-17T16:51:35.057Z,9.41
2022-11-17T16:54:21.281Z,9.45
2022-11-17T16:57:07.252Z,9.48
2022-11-17T16:59:53.488Z,9.39
2022-11-17T17:02:38.602Z,9.37
2022-11-17T17:05:25.145Z,9.50
2022-11-17T17:08:10.415Z,9.46
2022-11-17T17:11:00.645Z,9.43
2022-11-17T17:13:47.359Z,9.53
2022-11-17T17:16:34.652Z,9.43
2022-11-17T17:19:20.122Z,9.34
2022-11-17T17:22:05.486Z,9.38
2022-11-17T17:24:51.378Z,9.37
2022-11-17T17:27:36.945Z,9.34
2022-11-17T17:30:22.261Z,9.37
2022-11-17T17:33:08.350Z,9.31
2022-11-17T17:35:53.810Z,9.17
2022-11-17T17:38:38.733Z,9.27
2022-11-17T17:41:26.212Z,9.30
2022-11-17T17:44:19.329Z,9.31
2022-11-17T17:47:04.223Z,9.32
2022-11-17T17:49:49.535Z,9.25
2022-11-17T17:52:34.777Z,9.21
2022-11-17T17:55:19.665Z,9.23
2022-11-17T17:58:05.415Z,9.14
2022-11-17T18:00:50.642Z,9.12
2022-11-17T18:03:36.130Z,9.20
2022-11-17T18:06:22.466Z,9.05
2022-11-17T18:09:09.725Z,9.00
2022-11-17T18:11:54.929Z,9.07
2022-11-17T18:14:39.712Z,9.05
2022-11-17T18:17:24.958Z,9.05
2022-11-17T18:20:10.436Z,9.10
2022-11-17T18:22:56.515Z,9.14
2022-11-17T18:25:41.603Z,9.10
2022-11-17T18:28:26.827Z,9.09
2022-11-17T18:31:12.505Z,9.01
2022-11-17T18:34:00.325Z,9.05
2022-11-17T18:36:45.345Z,9.05
2022-11-17T18:39:30.808Z,9.08
2022-11-17T18:42:15.688Z,8.96
2022-11-17T18:45:00.615Z,8.95
2022-11-17T18:47:45.512Z,9.03
2022-11-17T18:50:30.719Z,9.01
2022-11-17T18:53:16.610Z,9.06
2022-11-17T18:56:10.139Z,9.03
2022-11-17T18:58:55.019Z,8.94
2022-11-17T19:01:42.597Z,8.91
2022-11-17T19:04:28.020Z,9.01
2022-11-17T19:07:13.138Z,8.97
2022-11-17T19:09:58.816Z,8.88
2022-11-17T19:12:44.117Z,8.82
2022-11-17T19:15:29.762Z,8.72
2022-11-17T19:18:19.249Z,8.82
2022-11-17T19:21:07.459Z,8.78
2022-11-17T19:23:54.018Z,8.75
2022-11-17T19:26:39.407Z,8.71
2022-11-17T19:29:24.407Z,8.65
2022-11-17T19:32:09.859Z,8.62
2022-11-17T19:35:00.325Z,8.65
2022-11-17T19:37:52.194Z,8.66
2022-11-17T19:40:37.244Z,8.69
2022-11-17T19:43:22.581Z,8.70
2022-11-17T19:46:10.521Z,8.60
2022-11-17T19:48:57.410Z,8.60
2022-11-17T19:51:42.538Z,8.69
2022-11-17T19:54:27.934Z,8.64
2022-11-17T19:57:13.411Z,8.60
2022-11-17T19:59:58.522Z,8.51
2022-11-17T20:02:43.339Z,8.61
2022-11-17T20:05:30.821Z,8.64
2022-11-17T20:08:16.280Z,8.58
2022-11-17T20:11:10.090Z,8.73
2022-11-17T20:13:55.962Z,8.66
2022-11-17T20:16:41.352Z,8.71
2022-11-17T20:19:26.808Z,8.67
2022-11-17T20:22:12.191Z,8.66
2022-11-17T20:25:03.071Z,8.60
2022-11-17T20:27:48.803Z,8.66
2022-11-17T20:30:37.655Z,8.80
2022-11-17T20:33:22.706Z,8.74
2022-11-17T20:36:09.625Z,8.68
2022-11-17T20:38:57.560Z,8.84
2022-11-17T20:41:42.663Z,8.76
2022-11-17T20:44:28.126Z,8.78
2022-11-17T20:47:13.593Z,8.86
2022-11-17T20:49:59.172Z,8.81
2022-11-17T20:52:44.574Z,8.74
2022-11-17T20:55:29.584Z,8.69
2022-11-17T20:58:15.086Z,8.67
2022-11-17T21:01:13.881Z,8.61
2022-11-17T21:03:59.336Z,8.72
2022-11-17T21:06:44.957Z,8.61
2022-11-17T21:09:29.986Z,8.65
2022-11-17T21:12:15.297Z,8.65
2022-11-17T21:15:01.088Z,8.65
2022-11-17T21:17:46.775Z,8.72
2022-11-17T21:20:32.894Z,8.68
2022-11-17T21:23:18.187Z,8.68
2022-11-17T21:26:14.218Z,8.61
2022-11-17T21:29:05.926Z,8.61
2022-11-17T21:31:51.583Z,8.61
2022-11-17T21:34:36.996Z,8.74
2022-11-17T21:37:22.308Z,8.71
2022-11-17T21:40:07.857Z,8.64
2022-11-17T21:42:53.060Z,8.49
2022-11-17T21:45:38.131Z,8.50
2022-11-17T21:48:23.217Z,8.45
2022-11-17T21:51:24.361Z,8.32
2022-11-17T21:54:09.991Z,8.42
2022-11-17T21:56:55.571Z,8.27
2022-11-17T21:59:40.883Z,8.41
2022-11-17T22:02:26.076Z,8.36
2022-11-17T22:05:11.674Z,8.22
2022-11-17T22:07:56.394Z,8.24
2022-11-17T22:10:42.024Z,8.24
2022-11-17T22:13:27.070Z,8.15
2022-11-17T22:16:13.870Z,8.09
2022-11-17T22:18:59.391Z,8.29
2022-11-17T22:21:45.661Z,8.24
2022-11-17T22:24:30.700Z,8.18
2022-11-17T22:27:16.109Z,8.24
2022-11-17T22:30:01.090Z,8.08
2022-11-17T22:32:46.564Z,8.05
2022-11-17T22:35:31.418Z,8.01
2022-11-17T22:38:17.079Z,8.08
2022-11-17T22:41:03.801Z,8.17
2022-11-17T22:43:53.482Z,8.04
2022-11-17T22:46:38.641Z,8.09
2022-11-17T22:49:23.974Z,8.07
2022-11-17T22:52:12.215Z,7.99
2022-11-17T22:54:58.966Z,7.90
2022-11-17T22:57:44.329Z,7.82
2022-11-17T23:00:29.596Z,7.83
2022-11-17T23:03:15.247Z,7.82
2022-11-17T23:06:04.537Z,7.92
2022-11-17T23:08:50.426Z,7.90
2022-11-17T23:11:38.237Z,7.90
2022-11-17T23:14:23.693Z,7.89
2022-11-17T23:17:09.276Z,7.89
2022-11-17T23:19:54.647Z,7.95
2022-11-17T23:22:39.920Z,7.89
2022-11-17T23:25:25.443Z,7.82
2022-11-17T23:28:10.378Z,7.78
2022-11-17T23:31:04.035Z,7.77
2022-11-17T23:33:49.082Z,7.70
2022-11-17T23:36:34.429Z,7.71
2022-11-17T23:39:20.035Z,7.65
2022-11-17T23:42:05.888Z,7.55
2022-11-17T23:44:50.881Z,7.49
2022-11-17T23:47:36.328Z,7.56
2022-11-17T23:50:21.553Z,7.48
2022-11-17T23:53:07.013Z,7.48
2022-11-17T23:55:56.903Z,7.47
2022-11-17T23:58:42.780Z,7.44
